Time,TemperatureF,DewpointF,PressureIn,WindDirection,WindDirectionDegrees,WindSpeedMPH,WindSpeedGustMPH,Humidity,HourlyPrecipIn,Conditions,Clouds,dailyrainin,SoftwareType,DateUTC
2013-08-04 00:01:00,54.2,52.8,29.77,WNW,295,0.0,0.0,95,0.00,,---,0.00,VWS V13.01,2013-08-04 04:01:00,
2013-08-04 00:02:00,54.2,52.8,29.77,WNW,295,0.0,0.0,95,0.00,,---,0.00,VWS V13.01,2013-08-04 04:02:00,
2013-08-04 00:05:00,54.1,52.7,29.76,WNW,295,0.0,0.0,95,0.00,,---,0.00,VWS V13.01,2013-08-04 04:05:00,
2013-08-04 00:07:00,54.0,52.6,29.77,WNW,295,0.0,0.0,95,0.00,,---,0.00,VWS V13.01,2013-08-04 04:07:00,
2013-08-04 00:12:00,53.6,52.2,29.76,WNW,295,0.0,0.0,95,0.00,,---,0.00,VWS V13.01,2013-08-04 04:12:00,
2013-08-04 00:17:00,53.2,51.8,29.76,WNW,295,0.0,0.0,95,0.00,,---,0.00,VWS V13.01,2013-08-04 04:17:00,
2013-08-04 00:22:00,53.0,51.6,29.76,WNW,295,0.0,0.0,95,0.00,,---,0.00,VWS V13.01,2013-08-04 04:22:00,
2013-08-04 00:27:00,53.0,51.6,29.76,WNW,295,0.0,0.0,95,0.00,,---,0.00,VWS V13.01,2013-08-04 04:27:00,
2013-08-04 00:32:00,52.8,51.7,29.76,WNW,295,0.0,0.0,96,0.00,,---,0.00,VWS V13.01,2013-08-04 04:32:00,
2013-08-04 00:37:00,52.5,51.1,29.76,WNW,295,0.0,1.0,95,0.00,,---,0.00,VWS V13.01,2013-08-04 04:37:00,
2013-08-04 00:42:00,52.3,51.2,29.76,WNW,295,0.0,1.0,96,0.00,,---,0.00,VWS V13.01,2013-08-04 04:42:00,
2013-08-04 00:48:00,52.0,50.9,29.77,WNW,295,0.0,1.0,96,0.00,,---,0.00,VWS V13.01,2013-08-04 04:48:00,
2013-08-04 00:53:00,51.9,50.8,29.77,WNW,295,0.0,1.0,96,0.00,,---,0.00,VWS V13.01,2013-08-04 04:53:00,
2013-08-04 00:58:00,52.1,51.0,29.77,WNW,295,0.0,1.0,96,0.00,,---,0.00,VWS V13.01,2013-08-04 04:58:00,
2013-08-04 01:03:00,52.2,51.1,29.77,WNW,295,0.0,0.0,96,0.00,,---,0.00,VWS V13.01,2013-08-04 05:03:00,
2013-08-04 01:08:00,52.5,51.7,29.77,WNW,295,0.0,0.0,97,0.00,,---,0.00,VWS V13.01,2013-08-04 05:08:00,
2013-08-04 01:13:00,52.9,52.1,29.77,WNW,295,0.0,0.0,97,0.00,,---,0.00,VWS V13.01,2013-08-04 05:13:00,
2013-08-04 01:18:00,53.1,52.3,29.77,WNW,295,0.0,1.0,97,0.00,,---,0.00,VWS V13.01,2013-08-04 05:18:00,
2013-08-04 01:24:00,53.1,52.3,29.77,WNW,295,0.0,1.0,97,0.00,,---,0.00,VWS V13.01,2013-08-04 05:24:00,
2013-08-04 01:29:00,53.2,52.4,29.77,WNW,295,0.0,1.0,97,0.00,,---,0.00,VWS V13.01,2013-08-04 05:29:00,
2013-08-04 01:34:00,53.5,52.7,29.77,WNW,295,0.0,0.0,97,0.00,,---,0.00,VWS V13.01,2013-08-04 05:34:00,
2013-08-04 01:39:00,53.6,52.8,29.77,WNW,295,0.0,0.0,97,0.00,,---,0.00,VWS V13.01,2013-08-04 05:39:00,
2013-08-04 01:44:00,53.8,53.0,29.77,WNW,295,0.0,0.0,97,0.00,,---,0.00,VWS V13.01,2013-08-04 05:44:00,
2013-08-04 01:50:00,53.9,53.1,29.77,WNW,295,0.0,0.0,97,0.00,,---,0.00,VWS V13.01,2013-08-04 05:50:00,
2013-08-04 01:55:00,54.0,53.2,29.77,WNW,295,0.0,0.0,97,0.00,,---,0.00,VWS V13.01,2013-08-04 05:55:00,
2013-08-04 02:00:00,54.2,53.4,29.77,WNW,295,0.0,0.0,97,0.00,,---,0.00,VWS V13.01,2013-08-04 06:00:00,
2013-08-04 02:05:00,54.3,53.5,29.77,WNW,295,0.0,0.0,97,0.00,,---,0.00,VWS V13.01,2013-08-04 06:05:00,
2013-08-04 02:10:00,54.3,53.5,29.77,WNW,295,0.0,0.0,97,0.00,,---,0.00,VWS V13.01,2013-08-04 06:10:00,
2013-08-04 02:15:00,54.5,53.7,29.77,WNW,295,0.0,0.0,97,0.00,,---,0.00,VWS V13.01,2013-08-04 06:15:00,
2013-08-04 02:20:00,54.6,53.8,29.77,WNW,295,0.0,0.0,97,0.00,,---,0.00,VWS V13.01,2013-08-04 06:20:00,
2013-08-04 02:25:00,54.6,53.8,29.77,WNW,295,0.0,0.0,97,0.00,,---,0.00,VWS V13.01,2013-08-04 06:25:00,
2013-08-04 02:30:00,54.6,53.8,29.77,WNW,295,0.0,0.0,97,0.00,,---,0.00,VWS V13.01,2013-08-04 06:30:00,
2013-08-04 02:35:00,54.7,53.9,29.77,WNW,295,0.0,0.0,97,0.00,,---,0.00,VWS V13.01,2013-08-04 06:35:00,
2013-08-04 02:41:00,54.7,53.9,29.77,WNW,295,0.0,0.0,97,0.00,,---,0.00,VWS V13.01,2013-08-04 06:41:00,
2013-08-04 02:46:00,54.8,54.0,29.78,WNW,295,0.0,0.0,97,0.00,,---,0.00,VWS V13.01,2013-08-04 06:46:00,
2013-08-04 02:51:00,54.9,54.1,29.78,WNW,295,0.0,0.0,97,0.00,,---,0.00,VWS V13.01,2013-08-04 06:51:00,
2013-08-04 02:57:00,55.0,54.2,29.78,WNW,295,0.0,0.0,97,0.00,,---,0.00,VWS V13.01,2013-08-04 06:57:00,
2013-08-04 03:02:00,54.9,54.1,29.78,WNW,295,0.0,0.0,97,0.00,,---,0.00,VWS V13.01,2013-08-04 07:02:00,
2013-08-04 03:07:00,54.9,54.1,29.78,WNW,295,0.0,1.0,97,0.00,,---,0.00,VWS V13.01,2013-08-04 07:07:00,
2013-08-04 03:12:00,54.8,53.7,29.78,WNW,295,0.0,1.0,96,0.00,,---,0.00,VWS V13.01,2013-08-04 07:12:00,
2013-08-04 03:18:00,54.7,53.9,29.78,WNW,295,0.0,1.0,97,0.00,,---,0.00,VWS V13.01,2013-08-04 07:18:00,
2013-08-04 03:23:00,54.6,53.5,29.78,WNW,295,0.0,1.0,96,0.00,,---,0.00,VWS V13.01,2013-08-04 07:23:00,
2013-08-04 03:28:00,54.3,53.5,29.78,WNW,295,0.0,1.0,97,0.00,,---,0.00,VWS V13.01,2013-08-04 07:28:00,
2013-08-04 03:33:00,54.2,53.1,29.78,WNW,295,0.0,0.0,96,0.00,,---,0.00,VWS V13.01,2013-08-04 07:33:00,
2013-08-04 03:38:00,54.0,52.9,29.78,WNW,295,0.0,0.0,96,0.00,,---,0.00,VWS V13.01,2013-08-04 07:38:00,
2013-08-04 03:44:00,54.0,53.2,29.78,WNW,295,0.0,0.0,97,0.00,,---,0.00,VWS V13.01,2013-08-04 07:44:00,
2013-08-04 03:49:00,54.0,53.2,29.78,WNW,295,0.0,0.0,97,0.00,,---,0.00,VWS V13.01,2013-08-04 07:49:00,
2013-08-04 03:54:00,53.8,53.0,29.78,WNW,295,0.0,0.0,97,0.00,,---,0.00,VWS V13.01,2013-08-04 07:54:00,
2013-08-04 03:59:00,53.5,52.4,29.78,WNW,295,0.0,0.0,96,0.00,,---,0.00,VWS V13.01,2013-08-04 07:59:00,
2013-08-04 04:05:00,53.1,52.0,29.78,WNW,295,0.0,0.0,96,0.00,,---,0.00,VWS V13.01,2013-08-04 08:05:00,
2013-08-04 04:10:00,52.9,51.8,29.78,WNW,295,0.0,0.0,96,0.00,,---,0.00,VWS V13.01,2013-08-04 08:10:00,
2013-08-04 04:15:00,52.8,51.7,29.78,WNW,295,0.0,0.0,96,0.00,,---,0.00,VWS V13.01,2013-08-04 08:15:00,
2013-08-04 04:20:00,52.7,51.9,29.78,WNW,295,0.0,0.0,97,0.00,,---,0.00,VWS V13.01,2013-08-04 08:20:00,
2013-08-04 04:25:00,52.6,51.8,29.78,WNW,295,0.0,0.0,97,0.00,,---,0.00,VWS V13.01,2013-08-04 08:25:00,
2013-08-04 04:31:00,52.4,51.3,29.78,WNW,295,0.0,0.0,96,0.00,,---,0.00,VWS V13.01,2013-08-04 08:31:00,
2013-08-04 04:36:00,52.1,51.0,29.78,WNW,295,0.0,0.0,96,0.00,,---,0.00,VWS V13.01,2013-08-04 08:36:00,
2013-08-04 04:41:00,51.9,51.1,29.79,WNW,295,0.0,0.0,97,0.00,,---,0.00,VWS V13.01,2013-08-04 08:41:00,
2013-08-04 04:46:00,51.6,50.5,29.79,WNW,295,0.0,0.0,96,0.00,,---,0.00,VWS V13.01,2013-08-04 08:46:00,
2013-08-04 04:51:00,51.5,50.7,29.79,WNW,295,0.0,0.0,97,0.00,,---,0.00,VWS V13.01,2013-08-04 08:51:00,
2013-08-04 04:56:00,51.5,50.7,29.79,WNW,295,0.0,0.0,97,0.00,,---,0.00,VWS V13.01,2013-08-04 08:56:00,
2013-08-04 05:02:00,51.4,50.6,29.79,WNW,295,0.0,0.0,97,0.00,,---,0.00,VWS V13.01,2013-08-04 09:02:00,
2013-08-04 05:07:00,51.3,50.5,29.80,WNW,295,0.0,0.0,97,0.00,,---,0.00,VWS V13.01,2013-08-04 09:07:00,
2013-08-04 05:12:00,51.2,50.4,29.80,WNW,295,0.0,0.0,97,0.00,,---,0.00,VWS V13.01,2013-08-04 09:12:00,
2013-08-04 05:17:00,51.4,50.6,29.80,WNW,295,0.0,1.0,97,0.00,,---,0.00,VWS V13.01,2013-08-04 09:17:00,
2013-08-04 05:22:00,51.5,50.7,29.80,WNW,295,0.0,1.0,97,0.00,,---,0.00,VWS V13.01,2013-08-04 09:22:00,
2013-08-04 05:27:00,51.4,50.6,29.80,WNW,295,0.0,1.0,97,0.00,,---,0.00,VWS V13.01,2013-08-04 09:27:00,
2013-08-04 05:32:00,51.4,50.6,29.80,WNW,295,0.0,0.0,97,0.00,,---,0.00,VWS V13.01,2013-08-04 09:32:00,
2013-08-04 05:38:00,51.1,50.3,29.80,WNW,295,0.0,0.0,97,0.00,,---,0.00,VWS V13.01,2013-08-04 09:38:00,
2013-08-04 05:42:00,50.7,49.9,29.80,WNW,295,0.0,0.0,97,0.00,,---,0.00,VWS V13.01,2013-08-04 09:42:00,
2013-08-04 05:48:00,50.5,49.7,29.80,WNW,295,0.0,0.0,97,0.00,,---,0.00,VWS V13.01,2013-08-04 09:48:00,
2013-08-04 05:53:00,50.6,49.8,29.81,WNW,295,0.0,0.0,97,0.00,,---,0.00,VWS V13.01,2013-08-04 09:53:00,
2013-08-04 05:58:00,51.0,50.2,29.81,WNW,295,0.0,0.0,97,0.00,,---,0.00,VWS V13.01,2013-08-04 09:58:00,
2013-08-04 06:03:00,51.0,50.2,29.81,WNW,295,0.0,0.0,97,0.00,,---,0.00,VWS V13.01,2013-08-04 10:03:00,
2013-08-04 06:09:00,51.0,50.5,29.81,WNW,295,0.0,0.0,98,0.00,,---,0.00,VWS V13.01,2013-08-04 10:09:00,
2013-08-04 06:14:00,50.9,50.4,29.81,WNW,295,0.0,0.0,98,0.00,,---,0.00,VWS V13.01,2013-08-04 10:14:00,
2013-08-04 06:19:00,50.7,49.9,29.82,WNW,295,0.0,0.0,97,0.00,,---,0.00,VWS V13.01,2013-08-04 10:19:00,
2013-08-04 06:25:00,50.0,49.2,29.82,WNW,295,0.0,0.0,97,0.00,,---,0.00,VWS V13.01,2013-08-04 10:25:00,
2013-08-04 06:29:00,49.9,49.1,29.82,WNW,295,0.0,0.0,97,0.00,,---,0.00,VWS V13.01,2013-08-04 10:29:00,
2013-08-04 06:35:00,50.2,49.4,29.82,WNW,295,0.0,1.0,97,0.00,,---,0.00,VWS V13.01,2013-08-04 10:35:00,
2013-08-04 06:40:00,50.6,50.1,29.82,WNW,295,0.0,1.0,98,0.00,,---,0.00,VWS V13.01,2013-08-04 10:40:00,
2013-08-04 06:45:00,50.8,50.3,29.82,WNW,295,0.0,1.0,98,0.00,,---,0.00,VWS V13.01,2013-08-04 10:45:00,
2013-08-04 06:50:00,50.8,50.3,29.82,WNW,295,0.0,1.0,98,0.00,,---,0.00,VWS V13.01,2013-08-04 10:50:00,
2013-08-04 06:55:00,51.0,50.5,29.83,WNW,295,0.0,1.0,98,0.00,,---,0.00,VWS V13.01,2013-08-04 10:55:00,
2013-08-04 07:01:00,51.2,50.7,29.83,WNW,295,0.0,0.0,98,0.00,,---,0.00,VWS V13.01,2013-08-04 11:01:00,
2013-08-04 07:06:00,51.3,50.8,29.83,WNW,295,0.0,1.0,98,0.00,,---,0.00,VWS V13.01,2013-08-04 11:06:00,
2013-08-04 07:11:00,51.4,50.9,29.83,WNW,295,0.0,1.0,98,0.00,,---,0.00,VWS V13.01,2013-08-04 11:11:00,
2013-08-04 07:16:00,51.7,51.2,29.83,WNW,295,0.0,1.0,98,0.00,,---,0.00,VWS V13.01,2013-08-04 11:16:00,
2013-08-04 07:21:00,52.1,51.5,29.83,WNW,295,1.0,5.0,98,0.00,,---,0.00,VWS V13.01,2013-08-04 11:21:00,
2013-08-04 07:26:00,52.7,52.2,29.83,WNW,295,0.0,5.0,98,0.00,,---,0.00,VWS V13.01,2013-08-04 11:26:00,
2013-08-04 07:31:00,53.1,52.5,29.83,WNW,295,0.0,0.0,98,0.00,,---,0.00,VWS V13.01,2013-08-04 11:31:00,
2013-08-04 07:37:00,53.5,53.0,29.83,WNW,295,0.0,4.0,98,0.00,,---,0.00,VWS V13.01,2013-08-04 11:37:00,
2013-08-04 07:42:00,54.0,53.5,29.83,WNW,295,0.0,4.0,98,0.00,,---,0.00,VWS V13.01,2013-08-04 11:42:00,
2013-08-04 07:47:00,54.6,54.0,29.83,WNW,295,0.0,4.0,98,0.00,,---,0.00,VWS V13.01,2013-08-04 11:47:00,
2013-08-04 07:52:00,55.1,54.5,29.83,WNW,295,0.0,4.0,98,0.00,,---,0.00,VWS V13.01,2013-08-04 11:52:00,
2013-08-04 07:57:00,55.7,55.2,29.84,WNW,295,0.0,4.0,98,0.00,,---,0.00,VWS V13.01,2013-08-04 11:57:00,
2013-08-04 08:03:00,55.9,55.3,29.84,WNW,295,0.0,0.0,98,0.00,,---,0.00,VWS V13.01,2013-08-04 12:03:00,
2013-08-04 08:08:00,56.2,55.7,29.84,WNW,295,0.0,1.0,98,0.00,,---,0.00,VWS V13.01,2013-08-04 12:08:00,
2013-08-04 08:13:00,56.4,55.6,29.84,WNW,295,0.0,1.0,97,0.00,,---,0.00,VWS V13.01,2013-08-04 12:13:00,
2013-08-04 08:19:00,57.0,56.2,29.84,WNW,295,0.0,1.0,97,0.00,,---,0.00,VWS V13.01,2013-08-04 12:19:00,
2013-08-04 08:23:00,57.6,56.2,29.84,WNW,295,0.0,5.0,95,0.00,,---,0.00,VWS V13.01,2013-08-04 12:23:00,
2013-08-04 08:29:00,58.1,56.4,29.84,WNW,295,0.0,5.0,94,0.00,,---,0.00,VWS V13.01,2013-08-04 12:29:00,
2013-08-04 08:34:00,58.4,56.1,29.84,WNW,295,0.0,0.0,92,0.00,,---,0.00,VWS V13.01,2013-08-04 12:34:00,
2013-08-04 08:39:00,58.6,56.3,29.84,WNW,295,0.0,2.0,92,0.00,,---,0.00,VWS V13.01,2013-08-04 12:39:00,
2013-08-04 08:44:00,58.8,56.2,29.84,WNW,295,0.0,2.0,91,0.00,,---,0.00,VWS V13.01,2013-08-04 12:44:00,
2013-08-04 08:49:00,59.0,56.4,29.84,WNW,295,0.0,2.0,91,0.00,,---,0.00,VWS V13.01,2013-08-04 12:49:00,
2013-08-04 08:55:00,59.5,56.0,29.84,WNW,295,0.0,5.0,88,0.00,,---,0.00,VWS V13.01,2013-08-04 12:55:00,
2013-08-04 09:00:00,59.8,56.2,29.84,WNW,295,6.0,8.0,88,0.00,,---,0.00,VWS V13.01,2013-08-04 13:00:00,
2013-08-04 09:05:00,60.2,56.0,29.83,WNW,295,0.0,7.0,86,0.00,,---,0.00,VWS V13.01,2013-08-04 13:05:00,
2013-08-04 09:10:00,60.4,55.9,29.84,WNW,302,0.0,8.0,85,0.00,,---,0.00,VWS V13.01,2013-08-04 13:10:00,
2013-08-04 09:16:00,60.5,56.0,29.84,WNW,302,0.0,8.0,85,0.00,,---,0.00,VWS V13.01,2013-08-04 13:16:00,
2013-08-04 09:21:00,60.7,55.8,29.84,NW,325,0.0,8.0,84,0.00,,---,0.00,VWS V13.01,2013-08-04 13:21:00,
2013-08-04 09:26:00,61.0,55.8,29.84,NW,321,0.0,8.0,83,0.00,,---,0.00,VWS V13.01,2013-08-04 13:26:00,
2013-08-04 09:32:00,61.3,55.8,29.84,NNW,327,7.0,7.0,82,0.00,,---,0.00,VWS V13.01,2013-08-04 13:32:00,
2013-08-04 09:37:00,60.9,55.0,29.84,WNW,298,8.0,13.0,81,0.00,,---,0.00,VWS V13.01,2013-08-04 13:37:00,
2013-08-04 09:42:00,60.6,55.1,29.85,WNW,289,5.0,13.0,82,0.00,,---,0.00,VWS V13.01,2013-08-04 13:42:00,
2013-08-04 09:48:00,60.5,55.0,29.85,West,281,0.0,13.0,82,0.00,,---,0.00,VWS V13.01,2013-08-04 13:48:00,
2013-08-04 09:53:00,60.7,54.8,29.85,West,281,0.0,13.0,81,0.00,,---,0.00,VWS V13.01,2013-08-04 13:53:00,
2013-08-04 09:58:00,61.3,55.8,29.85,West,281,0.0,13.0,82,0.00,,---,0.00,VWS V13.01,2013-08-04 13:58:00,
2013-08-04 10:03:00,62.2,56.3,29.85,NE,50,4.0,7.0,81,0.00,,---,0.00,VWS V13.01,2013-08-04 14:03:00,
2013-08-04 10:08:00,63.1,56.8,29.85,NE,55,0.0,7.0,80,0.00,,---,0.00,VWS V13.01,2013-08-04 14:08:00,
2013-08-04 10:13:00,63.8,56.5,29.85,WNW,283,0.0,7.0,77,0.00,,---,0.00,VWS V13.01,2013-08-04 14:13:00,
2013-08-04 10:19:00,64.1,56.4,29.85,WNW,290,1.0,10.0,76,0.00,,---,0.00,VWS V13.01,2013-08-04 14:19:00,
2013-08-04 10:24:00,63.6,55.2,29.85,West,272,5.0,11.0,74,0.00,,---,0.00,VWS V13.01,2013-08-04 14:24:00,
2013-08-04 10:29:00,63.3,55.2,29.85,West,261,11.0,11.0,75,0.00,,---,0.00,VWS V13.01,2013-08-04 14:29:00,
2013-08-04 10:34:00,62.9,55.2,29.86,WNW,292,0.0,10.0,76,0.00,,---,0.00,VWS V13.01,2013-08-04 14:34:00,
2013-08-04 10:40:00,62.9,55.2,29.86,NW,304,0.0,12.0,76,0.00,,---,0.00,VWS V13.01,2013-08-04 14:40:00,
2013-08-04 10:45:00,63.4,56.1,29.85,NW,319,0.0,12.0,77,0.00,,---,0.00,VWS V13.01,2013-08-04 14:45:00,
2013-08-04 10:49:00,64.1,56.4,29.86,NNW,329,0.0,12.0,76,0.00,,---,0.00,VWS V13.01,2013-08-04 14:49:00,
2013-08-04 10:55:00,63.9,54.3,29.86,West,280,4.0,12.0,71,0.00,,---,0.00,VWS V13.01,2013-08-04 14:55:00,
2013-08-04 11:00:00,63.5,54.3,29.86,WNW,288,9.0,9.0,72,0.00,,---,0.00,VWS V13.01,2013-08-04 15:00:00,
2013-08-04 11:05:00,63.3,54.5,29.86,NW,310,5.0,9.0,73,0.00,,---,0.00,VWS V13.01,2013-08-04 15:05:00,
2013-08-04 11:10:00,63.8,55.7,29.86,NNW,338,0.0,9.0,75,0.00,,---,0.00,VWS V13.01,2013-08-04 15:10:00,
2013-08-04 11:15:00,64.7,55.1,29.86,WNW,282,11.0,12.0,71,0.00,,---,0.00,VWS V13.01,2013-08-04 15:15:00,
2013-08-04 11:20:00,64.4,54.4,29.87,WNW,303,4.0,14.0,70,0.00,,---,0.00,VWS V13.01,2013-08-04 15:20:00,
2013-08-04 11:26:00,64.4,55.6,29.87,WNW,301,0.0,14.0,73,0.00,,---,0.00,VWS V13.01,2013-08-04 15:26:00,
2013-08-04 11:31:00,64.6,54.2,29.87,NNW,329,0.0,8.0,69,0.00,,---,0.00,VWS V13.01,2013-08-04 15:31:00,
2013-08-04 11:36:00,64.8,55.2,29.86,West,269,0.0,9.0,71,0.00,,---,0.00,VWS V13.01,2013-08-04 15:36:00,
2013-08-04 11:41:00,65.1,55.5,29.86,WNW,296,0.0,14.0,71,0.00,,---,0.00,VWS V13.01,2013-08-04 15:41:00,
2013-08-04 11:46:00,65.8,55.8,29.86,NNW,327,0.0,14.0,70,0.00,,---,0.00,VWS V13.01,2013-08-04 15:46:00,
2013-08-04 11:52:00,65.7,55.3,29.86,West,275,5.0,14.0,69,0.00,,---,0.00,VWS V13.01,2013-08-04 15:52:00,
2013-08-04 11:57:00,66.0,55.2,29.86,West,277,0.0,14.0,68,0.00,,---,0.00,VWS V13.01,2013-08-04 15:57:00,
2013-08-04 12:02:00,66.9,55.6,29.87,WNW,296,5.0,12.0,67,0.00,,---,0.00,VWS V13.01,2013-08-04 16:02:00,
2013-08-04 12:07:00,66.7,55.8,29.87,West,267,0.0,12.0,68,0.00,,---,0.00,VWS V13.01,2013-08-04 16:07:00,
2013-08-04 12:13:00,67.6,57.5,29.86,West,264,6.0,12.0,70,0.00,,---,0.00,VWS V13.01,2013-08-04 16:13:00,
2013-08-04 12:18:00,66.8,55.1,29.87,West,275,8.0,13.0,66,0.00,,---,0.00,VWS V13.01,2013-08-04 16:18:00,
2013-08-04 12:23:00,65.9,55.0,29.87,NNW,329,0.0,13.0,68,0.00,,---,0.00,VWS V13.01,2013-08-04 16:23:00,
2013-08-04 12:28:00,66.5,56.0,29.87,NNW,331,0.0,13.0,69,0.00,,---,0.00,VWS V13.01,2013-08-04 16:28:00,
2013-08-04 12:33:00,67.5,55.8,29.87,WNW,287,5.0,14.0,66,0.00,,---,0.00,VWS V13.01,2013-08-04 16:33:00,
2013-08-04 12:38:00,67.4,56.9,29.87,North,9,2.0,14.0,69,0.00,,---,0.00,VWS V13.01,2013-08-04 16:38:00,
2013-08-04 12:43:00,68.5,57.9,29.86,WNW,294,4.0,14.0,69,0.00,,---,0.00,VWS V13.01,2013-08-04 16:43:00,
2013-08-04 12:48:00,68.3,56.5,29.87,West,281,6.0,14.0,66,0.00,,---,0.00,VWS V13.01,2013-08-04 16:48:00,
2013-08-04 12:54:00,68.5,56.3,29.86,West,277,8.0,14.0,65,0.00,,---,0.00,VWS V13.01,2013-08-04 16:54:00,
2013-08-04 12:59:00,68.7,57.3,29.85,WNW,283,5.0,14.0,67,0.00,,---,0.00,VWS V13.01,2013-08-04 16:59:00,
2013-08-04 13:04:00,68.1,55.9,29.86,NW,321,0.0,10.0,65,0.00,,---,0.00,VWS V13.01,2013-08-04 17:04:00,
2013-08-04 13:09:00,67.3,55.2,29.86,NW,319,10.0,11.0,65,0.00,,---,0.00,VWS V13.01,2013-08-04 17:09:00,
2013-08-04 13:15:00,67.7,57.2,29.86,WNW,300,0.0,11.0,69,0.00,,---,0.00,VWS V13.01,2013-08-04 17:15:00,
2013-08-04 13:19:00,69.3,58.7,29.86,WNW,296,7.0,11.0,69,0.00,,---,0.00,VWS V13.01,2013-08-04 17:19:00,
2013-08-04 13:25:00,69.4,57.1,29.86,NNW,329,0.0,12.0,65,0.00,,---,0.00,VWS V13.01,2013-08-04 17:25:00,
2013-08-04 13:30:00,69.3,57.0,29.86,NW,317,9.0,11.0,65,0.00,,---,0.00,VWS V13.01,2013-08-04 17:30:00,
2013-08-04 13:35:00,68.7,56.0,29.86,NNW,334,7.0,13.0,64,0.00,,---,0.00,VWS V13.01,2013-08-04 17:35:00,
2013-08-04 13:40:00,68.2,56.4,29.86,West,275,8.0,13.0,66,0.00,,---,0.00,VWS V13.01,2013-08-04 17:40:00,
2013-08-04 13:46:00,68.7,56.9,29.86,WNW,292,5.0,13.0,66,0.00,,---,0.00,VWS V13.01,2013-08-04 17:46:00,
2013-08-04 13:51:00,69.6,56.0,29.86,WNW,284,0.0,13.0,62,0.00,,---,0.00,VWS V13.01,2013-08-04 17:51:00,
2013-08-04 13:56:00,70.0,55.5,29.86,West,281,5.0,13.0,60,0.00,,---,0.00,VWS V13.01,2013-08-04 17:56:00,
2013-08-04 14:02:00,69.8,56.2,29.86,WNW,286,9.0,13.0,62,0.00,,---,0.00,VWS V13.01,2013-08-04 18:02:00,
2013-08-04 14:07:00,68.2,55.1,29.87,WNW,296,6.0,15.0,63,0.00,,---,0.00,VWS V13.01,2013-08-04 18:07:00,
2013-08-04 14:12:00,68.0,55.8,29.87,WNW,284,8.0,15.0,65,0.00,,---,0.00,VWS V13.01,2013-08-04 18:12:00,
2013-08-04 14:17:00,68.9,56.2,29.87,WSW,257,9.0,15.0,64,0.00,,---,0.00,VWS V13.01,2013-08-04 18:17:00,
2013-08-04 14:23:00,68.8,56.1,29.87,WNW,290,6.0,15.0,64,0.00,,---,0.00,VWS V13.01,2013-08-04 18:23:00,
2013-08-04 14:28:00,69.5,55.0,29.86,WNW,291,10.0,15.0,60,0.00,,---,0.00,VWS V13.01,2013-08-04 18:28:00,
2013-08-04 14:33:00,70.3,56.7,29.86,NW,309,5.0,10.0,62,0.00,,---,0.00,VWS V13.01,2013-08-04 18:33:00,
2013-08-04 14:38:00,69.9,55.8,29.86,West,267,7.0,19.0,61,0.00,,---,0.00,VWS V13.01,2013-08-04 18:38:00,
2013-08-04 14:43:00,69.5,55.9,29.86,WNW,292,4.0,19.0,62,0.00,,---,0.00,VWS V13.01,2013-08-04 18:43:00,
2013-08-04 14:48:00,69.9,55.8,29.86,WNW,282,11.0,19.0,61,0.00,,---,0.00,VWS V13.01,2013-08-04 18:48:00,
2013-08-04 14:54:00,69.4,56.3,29.86,NNW,344,7.0,19.0,63,0.00,,---,0.00,VWS V13.01,2013-08-04 18:54:00,
2013-08-04 14:59:00,69.9,56.8,29.87,NW,322,0.0,19.0,63,0.00,,---,0.00,VWS V13.01,2013-08-04 18:59:00,
2013-08-04 15:04:00,70.6,59.1,29.87,NW,325,6.0,18.0,67,0.00,,---,0.00,VWS V13.01,2013-08-04 19:04:00,
2013-08-04 15:09:00,70.4,55.9,29.86,NW,312,2.0,18.0,60,0.00,,---,0.00,VWS V13.01,2013-08-04 19:09:00,
2013-08-04 15:14:00,70.2,56.1,29.86,NW,309,0.0,18.0,61,0.00,,---,0.00,VWS V13.01,2013-08-04 19:14:00,
2013-08-04 15:19:00,69.5,55.0,29.86,WNW,296,5.0,18.0,60,0.00,,---,0.00,VWS V13.01,2013-08-04 19:19:00,
2013-08-04 15:24:00,69.3,55.7,29.86,NNW,331,6.0,18.0,62,0.00,,---,0.00,VWS V13.01,2013-08-04 19:24:00,
2013-08-04 15:29:00,69.7,57.0,29.86,NW,306,5.0,18.0,64,0.00,,---,0.00,VWS V13.01,2013-08-04 19:29:00,
2013-08-04 15:35:00,70.5,56.4,29.86,NNW,340,0.0,12.0,61,0.00,,---,0.00,VWS V13.01,2013-08-04 19:35:00,
2013-08-04 15:40:00,70.3,55.8,29.86,NE,34,0.0,12.0,60,0.00,,---,0.00,VWS V13.01,2013-08-04 19:40:00,
2013-08-04 15:45:00,70.4,55.4,29.86,NNE,26,3.0,12.0,59,0.00,,---,0.00,VWS V13.01,2013-08-04 19:45:00,
2013-08-04 15:50:00,70.5,55.0,29.86,NNE,15,3.0,12.0,58,0.00,,---,0.00,VWS V13.01,2013-08-04 19:50:00,
2013-08-04 15:55:00,71.1,55.6,29.86,NNW,341,0.0,12.0,58,0.00,,---,0.00,VWS V13.01,2013-08-04 19:55:00,
2013-08-04 16:00:00,71.1,55.6,29.86,NNW,331,0.0,0.0,58,0.00,,---,0.00,VWS V13.01,2013-08-04 20:00:00,
2013-08-04 16:05:00,71.0,57.3,29.86,NNW,332,0.0,0.0,62,0.00,,---,0.00,VWS V13.01,2013-08-04 20:05:00,
2013-08-04 16:10:00,71.4,56.8,29.85,NNE,15,0.0,1.0,60,0.00,,---,0.00,VWS V13.01,2013-08-04 20:10:00,
2013-08-04 16:15:00,71.8,56.7,29.86,NW,313,7.0,14.0,59,0.00,,---,0.00,VWS V13.01,2013-08-04 20:15:00,
2013-08-04 16:21:00,71.6,56.1,29.86,North,5,7.0,14.0,58,0.00,,---,0.00,VWS V13.01,2013-08-04 20:21:00,
2013-08-04 16:26:00,70.3,54.8,29.86,NW,324,4.0,14.0,58,0.00,,---,0.00,VWS V13.01,2013-08-04 20:26:00,
2013-08-04 16:32:00,69.5,55.0,29.86,WNW,296,4.0,8.0,60,0.00,,---,0.00,VWS V13.01,2013-08-04 20:32:00,
2013-08-04 16:37:00,70.0,56.0,29.86,NW,318,10.0,13.0,61,0.00,,---,0.00,VWS V13.01,2013-08-04 20:37:00,
2013-08-04 16:43:00,70.3,56.2,29.86,NNW,336,0.0,13.0,61,0.00,,---,0.00,VWS V13.01,2013-08-04 20:43:00,
2013-08-04 16:48:00,70.9,56.8,29.86,West,269,6.0,13.0,61,0.00,,---,0.00,VWS V13.01,2013-08-04 20:48:00,
2013-08-04 16:53:00,70.7,55.7,29.86,NW,313,1.0,13.0,59,0.00,,---,0.00,VWS V13.01,2013-08-04 20:53:00,
2013-08-04 16:58:00,70.2,55.7,29.86,WNW,284,3.0,13.0,60,0.00,,---,0.00,VWS V13.01,2013-08-04 20:58:00,
2013-08-04 17:04:00,68.9,54.9,29.86,North,355,0.0,9.0,61,0.00,,---,0.00,VWS V13.01,2013-08-04 21:04:00,
2013-08-04 17:09:00,68.4,54.9,29.86,NW,315,0.0,9.0,62,0.00,,---,0.00,VWS V13.01,2013-08-04 21:09:00,
2013-08-04 17:14:00,67.9,55.3,29.86,NW,318,0.0,9.0,64,0.00,,---,0.00,VWS V13.01,2013-08-04 21:14:00,
2013-08-04 17:19:00,67.8,55.6,29.87,WNW,300,3.0,9.0,65,0.00,,---,0.00,VWS V13.01,2013-08-04 21:19:00,
2013-08-04 17:24:00,68.0,56.7,29.87,WNW,288,0.0,9.0,67,0.00,,---,0.00,VWS V13.01,2013-08-04 21:24:00,
2013-08-04 17:29:00,68.7,56.0,29.87,NW,322,4.0,11.0,64,0.00,,---,0.00,VWS V13.01,2013-08-04 21:29:00,
2013-08-04 17:34:00,69.1,56.8,29.87,NNW,327,0.0,9.0,65,0.00,,---,0.00,VWS V13.01,2013-08-04 21:34:00,
2013-08-04 17:40:00,69.8,57.1,29.87,NW,313,0.0,9.0,64,0.00,,---,0.00,VWS V13.01,2013-08-04 21:40:00,
2013-08-04 17:45:00,69.7,56.1,29.87,NW,313,0.0,9.0,62,0.00,,---,0.00,VWS V13.01,2013-08-04 21:45:00,
2013-08-04 17:50:00,69.0,56.3,29.87,NW,319,0.0,9.0,64,0.00,,---,0.00,VWS V13.01,2013-08-04 21:50:00,
2013-08-04 17:56:00,69.1,56.4,29.87,NNE,16,2.0,9.0,64,0.00,,---,0.00,VWS V13.01,2013-08-04 21:56:00,
2013-08-04 18:01:00,69.2,55.6,29.87,WNW,284,6.0,10.0,62,0.00,,---,0.00,VWS V13.01,2013-08-04 22:01:00,
2013-08-04 18:06:00,69.1,56.4,29.88,WNW,286,8.0,11.0,64,0.00,,---,0.00,VWS V13.01,2013-08-04 22:06:00,
2013-08-04 18:11:00,69.2,57.0,29.88,West,271,6.0,14.0,65,0.00,,---,0.00,VWS V13.01,2013-08-04 22:11:00,
2013-08-04 18:16:00,69.8,57.5,29.87,NNW,335,0.0,14.0,65,0.00,,---,0.00,VWS V13.01,2013-08-04 22:16:00,
2013-08-04 18:22:00,69.8,56.2,29.88,NW,304,5.0,14.0,62,0.00,,---,0.00,VWS V13.01,2013-08-04 22:22:00,
2013-08-04 18:27:00,69.2,57.0,29.88,NW,313,2.0,14.0,65,0.00,,---,0.00,VWS V13.01,2013-08-04 22:27:00,
2013-08-04 18:32:00,68.6,56.4,29.88,WNW,287,7.0,9.0,65,0.00,,---,0.00,VWS V13.01,2013-08-04 22:32:00,
2013-08-04 18:37:00,67.8,56.5,29.87,West,279,2.0,9.0,67,0.00,,---,0.00,VWS V13.01,2013-08-04 22:37:00,
2013-08-04 18:42:00,67.0,56.1,29.87,WNW,300,0.0,11.0,68,0.00,,---,0.00,VWS V13.01,2013-08-04 22:42:00,
2013-08-04 18:47:00,67.1,57.0,29.87,NW,321,0.0,11.0,70,0.00,,---,0.00,VWS V13.01,2013-08-04 22:47:00,
2013-08-04 18:52:00,68.0,57.9,29.87,NW,321,4.0,11.0,70,0.00,,---,0.00,VWS V13.01,2013-08-04 22:52:00,
2013-08-04 18:57:00,68.5,57.5,29.87,NW,321,0.0,11.0,68,0.00,,---,0.00,VWS V13.01,2013-08-04 22:57:00,
2013-08-04 19:03:00,68.7,57.7,29.86,NW,306,0.0,1.0,68,0.00,,---,0.00,VWS V13.01,2013-08-04 23:03:00,
2013-08-04 19:07:00,68.7,57.3,29.87,WNW,290,5.0,8.0,67,0.00,,---,0.00,VWS V13.01,2013-08-04 23:07:00,
2013-08-04 19:13:00,68.4,57.0,29.86,West,279,5.0,8.0,67,0.00,,---,0.00,VWS V13.01,2013-08-04 23:13:00,
2013-08-04 19:18:00,67.9,57.0,29.86,WNW,288,4.0,9.0,68,0.00,,---,0.00,VWS V13.01,2013-08-04 23:18:00,
2013-08-04 19:24:00,68.0,57.5,29.87,West,271,1.0,9.0,69,0.00,,---,0.00,VWS V13.01,2013-08-04 23:24:00,
2013-08-04 19:28:00,67.9,57.4,29.87,West,277,12.0,12.0,69,0.00,,---,0.00,VWS V13.01,2013-08-04 23:28:00,
2013-08-04 19:34:00,67.1,57.0,29.87,West,273,8.0,13.0,70,0.00,,---,0.00,VWS V13.01,2013-08-04 23:34:00,
2013-08-04 19:39:00,66.5,56.8,29.88,WNW,288,2.0,13.0,71,0.00,,---,0.00,VWS V13.01,2013-08-04 23:39:00,
2013-08-04 19:44:00,66.1,56.8,29.87,WNW,289,1.0,13.0,72,0.00,,---,0.00,VWS V13.01,2013-08-04 23:44:00,
2013-08-04 19:49:00,66.0,57.1,29.88,WNW,296,0.0,13.0,73,0.00,,---,0.00,VWS V13.01,2013-08-04 23:49:00,
2013-08-04 19:54:00,65.7,57.2,29.88,WNW,295,1.0,13.0,74,0.00,,---,0.00,VWS V13.01,2013-08-04 23:54:00,
2013-08-04 19:59:00,65.3,57.2,29.88,WNW,295,1.0,13.0,75,0.00,,---,0.00,VWS V13.01,2013-08-04 23:59:00,
2013-08-04 20:05:00,64.5,57.1,29.88,WNW,295,1.0,4.0,77,0.00,,---,0.00,VWS V13.01,2013-08-05 00:05:00,
2013-08-04 20:10:00,63.6,57.0,29.88,WNW,295,1.0,4.0,79,0.00,,---,0.00,VWS V13.01,2013-08-05 00:10:00,
2013-08-04 20:15:00,62.6,57.0,29.88,WNW,295,1.0,4.0,82,0.00,,---,0.00,VWS V13.01,2013-08-05 00:15:00,
2013-08-04 20:20:00,62.1,56.9,29.88,WNW,295,0.0,4.0,83,0.00,,---,0.00,VWS V13.01,2013-08-05 00:20:00,
2013-08-04 20:26:00,62.2,57.3,29.88,WNW,295,2.0,4.0,84,0.00,,---,0.00,VWS V13.01,2013-08-05 00:26:00,
2013-08-04 20:31:00,62.3,56.7,29.88,WNW,295,0.0,1.0,82,0.00,,---,0.00,VWS V13.01,2013-08-05 00:31:00,
2013-08-04 20:36:00,62.0,56.5,29.88,WNW,295,2.0,3.0,82,0.00,,---,0.00,VWS V13.01,2013-08-05 00:36:00,
2013-08-04 20:41:00,61.3,56.4,29.88,WNW,295,0.0,4.0,84,0.00,,---,0.00,VWS V13.01,2013-08-05 00:41:00,
2013-08-04 20:46:00,61.0,56.5,29.88,WNW,295,2.0,4.0,85,0.00,,---,0.00,VWS V13.01,2013-08-05 00:46:00,
2013-08-04 20:51:00,60.9,56.4,29.88,WNW,295,2.0,4.0,85,0.00,,---,0.00,VWS V13.01,2013-08-05 00:51:00,
2013-08-04 20:56:00,60.4,55.5,29.88,WNW,295,0.0,4.0,84,0.00,,---,0.00,VWS V13.01,2013-08-05 00:56:00,
2013-08-04 21:02:00,59.7,55.5,29.89,WNW,295,0.0,1.0,86,0.00,,---,0.00,VWS V13.01,2013-08-05 01:02:00,
2013-08-04 21:07:00,59.0,55.5,29.89,WNW,295,4.0,4.0,88,0.00,,---,0.00,VWS V13.01,2013-08-05 01:07:00,
2013-08-04 21:12:00,58.3,54.8,29.89,WNW,295,3.0,5.0,88,0.00,,---,0.00,VWS V13.01,2013-08-05 01:12:00,
2013-08-04 21:17:00,57.2,54.0,29.89,WNW,295,2.0,5.0,89,0.00,,---,0.00,VWS V13.01,2013-08-05 01:17:00,
2013-08-04 21:22:00,57.2,54.6,29.89,WNW,295,5.0,5.0,91,0.00,,---,0.00,VWS V13.01,2013-08-05 01:22:00,
2013-08-04 21:28:00,57.2,54.6,29.90,WNW,295,2.0,5.0,91,0.00,,---,0.00,VWS V13.01,2013-08-05 01:28:00,
2013-08-04 21:32:00,56.7,54.1,29.90,WNW,295,4.0,5.0,91,0.00,,---,0.00,VWS V13.01,2013-08-05 01:32:00,
2013-08-04 21:38:00,56.3,54.0,29.90,WNW,295,2.0,5.0,92,0.00,,---,0.00,VWS V13.01,2013-08-05 01:38:00,
2013-08-04 21:43:00,56.6,54.6,29.90,WNW,295,2.0,6.0,93,0.00,,---,0.00,VWS V13.01,2013-08-05 01:43:00,
2013-08-04 21:48:00,57.1,55.1,29.90,WNW,295,0.0,6.0,93,0.00,,---,0.00,VWS V13.01,2013-08-05 01:48:00,
2013-08-04 21:53:00,57.2,55.2,29.91,WNW,295,4.0,6.0,93,0.00,,---,0.00,VWS V13.01,2013-08-05 01:53:00,
2013-08-04 21:58:00,57.2,55.2,29.91,WNW,295,3.0,6.0,93,0.00,,---,0.00,VWS V13.01,2013-08-05 01:58:00,
2013-08-04 22:04:00,57.1,55.1,29.91,WNW,295,2.0,5.0,93,0.00,,---,0.00,VWS V13.01,2013-08-05 02:04:00,
2013-08-04 22:09:00,57.1,55.1,29.91,WNW,295,3.0,5.0,93,0.00,,---,0.00,VWS V13.01,2013-08-05 02:09:00,
2013-08-04 22:14:00,56.9,54.9,29.91,WNW,295,2.0,5.0,93,0.00,,---,0.00,VWS V13.01,2013-08-05 02:14:00,
2013-08-04 22:19:00,56.8,54.8,29.91,WNW,295,0.0,5.0,93,0.00,,---,0.00,VWS V13.01,2013-08-05 02:19:00,
2013-08-04 22:24:00,56.6,54.9,29.91,WNW,295,0.0,5.0,94,0.00,,---,0.00,VWS V13.01,2013-08-05 02:24:00,
2013-08-04 22:29:00,56.5,54.5,29.91,WNW,295,0.0,5.0,93,0.00,,---,0.00,VWS V13.01,2013-08-05 02:29:00,
2013-08-04 22:34:00,55.8,53.8,29.91,WNW,295,0.0,0.0,93,0.00,,---,0.00,VWS V13.01,2013-08-05 02:34:00,
2013-08-04 22:40:00,55.2,53.2,29.91,WNW,295,0.0,0.0,93,0.00,,---,0.00,VWS V13.01,2013-08-05 02:40:00,
2013-08-04 22:45:00,55.1,53.4,29.91,WNW,295,0.0,0.0,94,0.00,,---,0.00,VWS V13.01,2013-08-05 02:45:00,
2013-08-04 22:50:00,55.1,53.4,29.91,WNW,295,0.0,0.0,94,0.00,,---,0.00,VWS V13.01,2013-08-05 02:50:00,
2013-08-04 22:56:00,54.6,52.9,29.91,WNW,295,0.0,1.0,94,0.00,,---,0.00,VWS V13.01,2013-08-05 02:56:00,
2013-08-04 23:01:00,54.3,52.9,29.91,WNW,295,0.0,0.0,95,0.00,,---,0.00,VWS V13.01,2013-08-05 03:01:00,
2013-08-04 23:07:00,54.8,53.7,29.92,WNW,295,0.0,0.0,96,0.00,,---,0.00,VWS V13.01,2013-08-05 03:07:00,
2013-08-04 23:12:00,55.1,54.0,29.92,WNW,295,0.0,0.0,96,0.00,,---,0.00,VWS V13.01,2013-08-05 03:12:00,
2013-08-04 23:17:00,55.0,53.6,29.92,WNW,295,0.0,0.0,95,0.00,,---,0.00,VWS V13.01,2013-08-05 03:17:00,
2013-08-04 23:22:00,54.8,53.4,29.92,WNW,295,0.0,0.0,95,0.00,,---,0.00,VWS V13.01,2013-08-05 03:22:00,
2013-08-04 23:28:00,54.6,53.2,29.92,WNW,295,0.0,0.0,95,0.00,,---,0.00,VWS V13.01,2013-08-05 03:28:00,
2013-08-04 23:33:00,54.6,53.5,29.92,WNW,295,0.0,1.0,96,0.00,,---,0.00,VWS V13.01,2013-08-05 03:33:00,
2013-08-04 23:38:00,54.9,53.8,29.92,WNW,295,0.0,4.0,96,0.00,,---,0.00,VWS V13.01,2013-08-05 03:38:00,
2013-08-04 23:43:00,54.8,53.7,29.92,WNW,295,0.0,4.0,96,0.00,,---,0.00,VWS V13.01,2013-08-05 03:43:00,
2013-08-04 23:48:00,54.8,53.7,29.93,WNW,295,0.0,4.0,96,0.00,,---,0.00,VWS V13.01,2013-08-05 03:48:00,
2013-08-04 23:54:00,54.8,53.7,29.92,WNW,295,0.0,4.0,96,0.00,,---,0.00,VWS V13.01,2013-08-05 03:54:00,
2013-08-04 23:59:00,54.7,53.6,29.93,WNW,295,0.0,4.0,96,0.00,,---,0.00,VWS V13.01,2013-08-05 03:59:00,